createdAt,value
2019-01-31T00:01:34.296Z,-0.29
2019-01-31T00:04:20.844Z,-0.28
2019-01-31T00:07:01.310Z,-0.26
2019-01-31T00:09:38.770Z,-0.30
2019-01-31T00:12:18.962Z,-0.23
2019-01-31T00:14:53.465Z,-0.39
2019-01-31T00:17:46.031Z,-0.37
2019-01-31T00:20:20.184Z,-0.47
2019-01-31T00:23:20.156Z,-0.46
2019-01-31T00:26:02.924Z,-0.49
2019-01-31T00:29:03.098Z,-0.50
2019-01-31T00:31:55.650Z,-0.36
2019-01-31T00:34:49.815Z,-0.47
2019-01-31T00:37:21.322Z,-0.36
2019-01-31T00:39:52.933Z,-0.37
2019-01-31T00:42:24.451Z,-0.35
2019-01-31T00:45:15.453Z,-0.50
2019-01-31T00:47:55.504Z,-0.44
2019-01-31T00:50:33.076Z,-0.45
2019-01-31T00:53:34.730Z,-0.40
2019-01-31T00:56:18.288Z,-0.41
2019-01-31T00:59:12.334Z,-0.48
2019-01-31T01:01:49.822Z,-0.46
2019-01-31T01:04:30.133Z,-0.52
2019-01-31T01:07:10.608Z,-0.47
2019-01-31T01:09:53.926Z,-0.28
2019-01-31T01:12:44.784Z,-0.32
2019-01-31T01:15:43.468Z,-0.33
2019-01-31T01:18:24.227Z,-0.28
2019-01-31T01:21:03.847Z,-0.29
2019-01-31T01:23:38.028Z,-0.20
2019-01-31T01:26:15.444Z,-0.23
2019-01-31T01:29:07.783Z,-0.18
2019-01-31T01:32:05.013Z,-0.25
2019-01-31T01:34:42.099Z,-0.25
2019-01-31T01:37:19.140Z,-0.20
2019-01-31T01:40:07.316Z,-0.20
2019-01-31T01:42:41.312Z,-0.27
2019-01-31T01:45:24.928Z,-0.32
2019-01-31T01:47:59.497Z,-0.28
2019-01-31T01:50:31.010Z,-0.17
2019-01-31T01:53:26.552Z,-0.18
2019-01-31T01:56:25.300Z,-0.33
2019-01-31T01:59:07.953Z,-0.19
2019-01-31T02:01:45.134Z,-0.28
2019-01-31T02:04:22.340Z,-0.32
2019-01-31T02:07:10.118Z,-0.32
2019-01-31T02:09:56.313Z,-0.19
2019-01-31T02:12:30.876Z,-0.18
2019-01-31T02:15:08.228Z,-0.21
2019-01-31T02:17:42.672Z,-0.25
2019-01-31T02:20:24.901Z,-0.16
2019-01-31T02:23:11.544Z,-0.26
2019-01-31T02:26:02.632Z,-0.23
2019-01-31T02:28:38.661Z,-0.25
2019-01-31T02:31:19.105Z,-0.26
2019-01-31T02:34:05.505Z,-0.34
2019-01-31T02:36:42.648Z,-0.38
2019-01-31T02:39:42.705Z,-0.23
2019-01-31T02:42:24.837Z,-0.15
2019-01-31T02:45:22.336Z,-0.10
2019-01-31T02:48:02.658Z,-0.08
2019-01-31T02:50:42.998Z,-0.12
2019-01-31T02:53:32.789Z,-0.08
2019-01-31T02:56:09.867Z,-0.10
2019-01-31T02:58:44.227Z,-0.01
2019-01-31T03:01:33.977Z,-0.01
2019-01-31T03:04:05.506Z,-0.08
2019-01-31T03:06:40.133Z,-0.08
2019-01-31T03:09:11.652Z,-0.08
2019-01-31T03:11:49.223Z,-0.17
2019-01-31T03:14:20.958Z,-0.29
2019-01-31T03:17:04.205Z,-0.20
2019-01-31T03:19:38.561Z,-0.22
2019-01-31T03:22:12.705Z,-0.17
2019-01-31T03:24:46.997Z,-0.28
2019-01-31T03:27:45.744Z,-0.23
2019-01-31T03:30:33.641Z,-0.17
2019-01-31T03:33:07.929Z,-0.22
2019-01-31T03:35:42.223Z,-0.20
2019-01-31T03:38:25.597Z,-0.19
2019-01-31T03:41:18.304Z,-0.16
2019-01-31T03:43:49.797Z,-0.05
2019-01-31T03:46:35.973Z,-0.16
2019-01-31T03:49:10.343Z,-0.16
2019-01-31T03:52:07.309Z,-0.20
2019-01-31T03:54:44.525Z,-0.25
2019-01-31T03:57:32.419Z,-0.29
2019-01-31T04:00:12.135Z,-0.27
2019-01-31T04:02:52.390Z,-0.31
2019-01-31T04:05:38.864Z,-0.19
2019-01-31T04:08:07.504Z,-0.26
2019-01-31T04:10:35.957Z,-0.27
2019-01-31T04:13:04.589Z,-0.27
2019-01-31T04:15:33.063Z,-0.29
2019-01-31T04:18:01.501Z,-0.22
2019-01-31T04:20:29.985Z,-0.38
2019-01-31T04:22:59.966Z,-0.25
2019-01-31T04:25:28.441Z,-0.23
2019-01-31T04:27:56.926Z,-0.18
2019-01-31T04:30:25.585Z,-0.15
2019-01-31T04:32:54.035Z,-0.23
2019-01-31T04:35:22.496Z,-0.11
2019-01-31T04:37:50.993Z,-0.08
2019-01-31T04:40:30.517Z,-0.14
2019-01-31T04:42:49.587Z,0.03
2019-01-31T04:45:18.033Z,0.00
2019-01-31T04:47:46.488Z,-0.08
2019-01-31T04:50:15.497Z,-0.07
2019-01-31T04:52:43.957Z,-0.02
2019-01-31T04:55:12.556Z,-0.02
2019-01-31T04:57:41.025Z,-0.11
2019-01-31T05:00:12.774Z,-0.02
2019-01-31T05:02:41.316Z,0.01
2019-01-31T05:05:09.917Z,0.09
2019-01-31T05:07:38.369Z,0.19
2019-01-31T05:10:09.729Z,0.15
2019-01-31T05:12:38.193Z,0.16
2019-01-31T05:15:09.702Z,0.15
2019-01-31T05:17:38.179Z,0.03
2019-01-31T05:20:15.605Z,0.11
2019-01-31T05:22:44.115Z,0.07
2019-01-31T05:25:14.096Z,0.10
2019-01-31T05:27:42.560Z,-0.06
2019-01-31T05:30:13.635Z,0.01
2019-01-31T05:32:42.124Z,-0.07
2019-01-31T05:35:12.301Z,-0.01
2019-01-31T05:37:40.783Z,-0.01
2019-01-31T05:40:12.469Z,-0.02
2019-01-31T05:42:40.944Z,-0.04
2019-01-31T05:45:12.388Z,0.06
2019-01-31T05:47:40.907Z,0.08
2019-01-31T05:50:14.543Z,0.04
2019-01-31T05:52:43.202Z,-0.06
2019-01-31T05:55:12.560Z,-0.05
2019-01-31T05:57:41.027Z,-0.04
2019-01-31T06:00:15.483Z,-0.04
2019-01-31T06:02:43.967Z,0.02
2019-01-31T06:05:12.780Z,0.03
2019-01-31T06:07:41.243Z,-0.09
2019-01-31T06:10:11.914Z,-0.02
2019-01-31T06:12:40.370Z,0.03
2019-01-31T06:15:11.867Z,0.00
2019-01-31T06:17:40.333Z,-0.06
2019-01-31T06:20:11.858Z,-0.04
2019-01-31T06:22:40.313Z,-0.03
2019-01-31T06:25:08.930Z,0.01
2019-01-31T06:27:37.453Z,-0.11
2019-01-31T06:30:08.991Z,-0.02
2019-01-31T06:32:37.479Z,-0.05
2019-01-31T06:35:08.975Z,0.16
2019-01-31T06:37:37.419Z,0.12
2019-01-31T06:40:12.047Z,0.14
2019-01-31T06:42:40.558Z,0.06
2019-01-31T06:45:12.549Z,0.05
2019-01-31T06:47:40.995Z,-0.02
2019-01-31T06:50:10.341Z,-0.05
2019-01-31T06:52:38.773Z,0.07
2019-01-31T06:55:09.488Z,-0.02
2019-01-31T06:57:37.927Z,-0.08
2019-01-31T07:00:15.501Z,-0.02
2019-01-31T07:02:43.939Z,0.04
2019-01-31T07:05:12.563Z,0.12
2019-01-31T07:07:41.027Z,0.00
2019-01-31T07:10:12.698Z,0.11
2019-01-31T07:12:41.147Z,0.11
2019-01-31T07:15:11.587Z,0.10
2019-01-31T07:17:40.012Z,0.04
2019-01-31T07:20:16.818Z,-0.02
2019-01-31T07:22:45.515Z,0.10
2019-01-31T07:25:24.460Z,-0.08
2019-01-31T07:27:53.585Z,0.02
2019-01-31T07:30:23.410Z,0.10
2019-01-31T07:32:51.947Z,0.13
2019-01-31T07:35:20.678Z,0.15
2019-01-31T07:37:49.128Z,0.15
2019-01-31T07:40:22.351Z,0.19
2019-01-31T07:42:50.854Z,0.16
2019-01-31T07:45:24.982Z,0.32
2019-01-31T07:47:53.424Z,0.33
2019-01-31T07:50:22.067Z,0.36
2019-01-31T07:52:51.394Z,0.37
2019-01-31T07:55:20.187Z,0.42
2019-01-31T07:57:48.634Z,0.44
2019-01-31T08:00:19.313Z,0.36
2019-01-31T08:02:47.767Z,0.55
2019-01-31T08:05:18.092Z,0.61
2019-01-31T08:07:50.360Z,0.38
2019-01-31T08:10:26.780Z,0.46
2019-01-31T08:12:55.562Z,0.55
2019-01-31T08:15:24.101Z,0.56
2019-01-31T08:17:52.551Z,0.51
2019-01-31T08:20:21.315Z,0.35
2019-01-31T08:22:49.763Z,0.47
2019-01-31T08:25:22.960Z,0.46
2019-01-31T08:27:52.357Z,0.45
2019-01-31T08:30:32.425Z,0.45
2019-01-31T08:33:00.906Z,0.53
2019-01-31T08:35:29.460Z,0.58
2019-01-31T08:37:57.955Z,0.80
2019-01-31T08:40:26.450Z,0.67
2019-01-31T08:42:55.093Z,0.58
2019-01-31T08:45:23.582Z,0.77
2019-01-31T08:47:52.049Z,0.77
2019-01-31T08:50:28.416Z,0.80
2019-01-31T08:52:56.604Z,0.90
2019-01-31T08:55:25.155Z,1.08
2019-01-31T08:57:53.633Z,1.05
2019-01-31T09:00:24.790Z,1.13
2019-01-31T09:02:53.325Z,1.11
2019-01-31T09:05:21.766Z,1.17
2019-01-31T09:07:50.225Z,1.15
2019-01-31T09:10:24.484Z,1.04
2019-01-31T09:12:52.950Z,1.01
2019-01-31T09:15:23.313Z,1.18
2019-01-31T09:17:52.057Z,1.32
2019-01-31T09:20:29.350Z,1.26
2019-01-31T09:23:03.771Z,1.35
2019-01-31T09:26:08.779Z,1.33
2019-01-31T09:28:42.948Z,1.27
2019-01-31T09:31:20.078Z,1.33
2019-01-31T09:33:54.375Z,1.44
2019-01-31T09:36:43.585Z,1.40
2019-01-31T09:39:30.349Z,1.47
2019-01-31T09:42:11.011Z,1.86
2019-01-31T09:44:48.641Z,1.77
2019-01-31T09:47:47.290Z,1.93
2019-01-31T09:50:24.527Z,1.98
2019-01-31T09:53:07.466Z,1.82
2019-01-31T09:55:41.853Z,1.76
2019-01-31T09:58:16.032Z,1.85
2019-01-31T10:01:17.938Z,1.89
2019-01-31T10:04:07.507Z,2.01
2019-01-31T10:06:44.877Z,1.87
2019-01-31T10:09:22.183Z,1.81
2019-01-31T10:12:02.611Z,2.00
2019-01-31T10:14:53.634Z,2.12
2019-01-31T10:17:36.448Z,2.36
2019-01-31T10:20:22.933Z,2.26
2019-01-31T10:22:57.031Z,2.38
2019-01-31T10:25:31.165Z,2.34
2019-01-31T10:28:20.295Z,2.36
2019-01-31T10:31:16.216Z,2.35
2019-01-31T10:34:22.564Z,2.46
2019-01-31T10:36:56.933Z,2.39
2019-01-31T10:39:54.308Z,2.46
2019-01-31T10:42:28.598Z,2.46
2019-01-31T10:45:22.809Z,2.61
2019-01-31T10:48:08.673Z,2.56
2019-01-31T10:50:58.647Z,2.72
2019-01-31T10:53:35.840Z,2.68
2019-01-31T10:56:07.366Z,2.76
2019-01-31T10:58:58.528Z,2.88
2019-01-31T11:01:30.021Z,2.77
2019-01-31T11:04:22.055Z,2.83
2019-01-31T11:06:56.153Z,2.89
2019-01-31T11:09:46.001Z,2.79
2019-01-31T11:12:29.581Z,2.96
2019-01-31T11:15:29.723Z,3.04
2019-01-31T11:18:10.041Z,3.08
2019-01-31T11:21:00.664Z,3.16
2019-01-31T11:23:41.060Z,3.08
2019-01-31T11:26:15.213Z,3.21
2019-01-31T11:28:49.618Z,3.25
2019-01-31T11:31:33.214Z,3.24
2019-01-31T11:34:07.668Z,3.28
2019-01-31T11:36:45.243Z,3.36
2019-01-31T11:39:45.866Z,3.44
2019-01-31T11:42:38.197Z,3.33
2019-01-31T11:45:35.654Z,3.45
2019-01-31T11:48:25.030Z,3.37
2019-01-31T11:51:05.708Z,3.38
2019-01-31T11:53:40.270Z,3.45
2019-01-31T11:56:24.085Z,3.27
2019-01-31T11:59:00.742Z,3.32
2019-01-31T12:01:29.626Z,3.44
2019-01-31T12:04:00.374Z,3.52
2019-01-31T12:06:28.908Z,3.63
2019-01-31T12:08:57.364Z,3.71
2019-01-31T12:11:25.833Z,3.97
2019-01-31T12:13:54.305Z,4.12
2019-01-31T12:16:22.928Z,4.23
2019-01-31T12:18:51.386Z,4.23
2019-01-31T12:21:19.860Z,4.33
2019-01-31T12:23:48.451Z,4.42
2019-01-31T12:26:16.984Z,4.31
2019-01-31T12:28:45.516Z,4.54
2019-01-31T12:31:14.056Z,4.49
2019-01-31T12:33:42.450Z,4.72
2019-01-31T12:36:11.088Z,4.88
2019-01-31T12:38:39.573Z,4.74
2019-01-31T12:41:08.061Z,4.97
2019-01-31T12:43:36.533Z,5.09
2019-01-31T12:46:05.343Z,4.99
2019-01-31T12:48:33.815Z,4.84
2019-01-31T12:51:02.271Z,4.80
2019-01-31T12:53:30.827Z,4.84
2019-01-31T12:55:59.301Z,4.87
2019-01-31T12:58:33.762Z,4.83
2019-01-31T13:00:57.964Z,4.70
2019-01-31T13:03:26.473Z,4.45
2019-01-31T13:05:54.919Z,4.51
2019-01-31T13:08:23.421Z,4.53
2019-01-31T13:10:51.935Z,4.37
2019-01-31T13:13:20.360Z,4.48
2019-01-31T13:15:48.879Z,4.32
2019-01-31T13:18:17.329Z,4.42
2019-01-31T13:20:45.971Z,4.43
2019-01-31T13:23:14.601Z,4.38
2019-01-31T13:25:43.233Z,4.27
2019-01-31T13:28:11.689Z,4.30
2019-01-31T13:30:40.130Z,4.21
2019-01-31T13:33:08.818Z,4.36
2019-01-31T13:35:37.407Z,4.27
2019-01-31T13:38:05.975Z,4.22
2019-01-31T13:40:34.485Z,4.40
2019-01-31T13:43:02.936Z,4.47
2019-01-31T13:45:35.723Z,4.40
2019-01-31T13:48:07.233Z,4.43
2019-01-31T13:50:35.716Z,4.58
2019-01-31T13:53:06.587Z,4.34
2019-01-31T13:55:35.211Z,4.22
2019-01-31T13:58:04.144Z,4.32
2019-01-31T14:00:32.675Z,4.30
2019-01-31T14:03:01.182Z,4.41
2019-01-31T14:05:30.127Z,4.38
2019-01-31T14:07:58.749Z,4.27
2019-01-31T14:10:27.989Z,4.09
2019-01-31T14:12:56.563Z,4.27
2019-01-31T14:15:33.417Z,4.29
2019-01-31T14:17:58.028Z,4.17
2019-01-31T14:20:28.140Z,4.27
2019-01-31T14:22:56.855Z,4.22
2019-01-31T14:25:25.657Z,4.18
2019-01-31T14:27:55.299Z,4.21
2019-01-31T14:30:29.758Z,4.20
2019-01-31T14:32:58.830Z,4.31
2019-01-31T14:35:28.126Z,4.42
2019-01-31T14:37:56.593Z,4.20
2019-01-31T14:40:25.506Z,4.06
2019-01-31T14:42:54.599Z,4.14
2019-01-31T14:45:23.064Z,4.15
2019-01-31T14:47:51.624Z,4.04
2019-01-31T14:50:22.945Z,3.96
2019-01-31T14:52:51.462Z,3.89
2019-01-31T14:55:19.934Z,3.89
2019-01-31T14:57:48.471Z,3.89
2019-01-31T15:00:19.590Z,3.96
2019-01-31T15:02:48.050Z,3.88
2019-01-31T15:05:17.453Z,3.92
2019-01-31T15:07:46.240Z,3.87
2019-01-31T15:10:20.232Z,3.84
2019-01-31T15:12:48.661Z,3.88
2019-01-31T15:15:17.676Z,3.88
2019-01-31T15:17:46.185Z,3.84
2019-01-31T15:20:35.880Z,3.87
2019-01-31T15:22:56.170Z,3.90
2019-01-31T15:25:24.795Z,3.87
2019-01-31T15:27:53.433Z,3.78
2019-01-31T15:30:27.569Z,3.70
2019-01-31T15:32:56.149Z,3.67
2019-01-31T15:35:24.626Z,3.75
2019-01-31T15:37:53.175Z,3.69
2019-01-31T15:40:30.896Z,3.61
2019-01-31T15:42:59.325Z,3.64
2019-01-31T15:45:27.922Z,3.58
2019-01-31T15:47:56.635Z,3.55
2019-01-31T15:50:25.557Z,3.54
2019-01-31T15:52:54.279Z,3.56
2019-01-31T15:55:25.216Z,3.47
2019-01-31T15:57:53.767Z,3.34
2019-01-31T16:00:41.558Z,3.34
2019-01-31T16:03:11.948Z,3.25
2019-01-31T16:05:40.580Z,3.23
2019-01-31T16:08:10.036Z,3.21
2019-01-31T16:10:38.576Z,3.15
2019-01-31T16:13:07.512Z,3.11
2019-01-31T16:15:36.506Z,3.04
2019-01-31T16:18:06.599Z,3.11
2019-01-31T16:20:35.015Z,2.96
2019-01-31T16:23:03.718Z,2.89
2019-01-31T16:25:32.290Z,2.83
2019-01-31T16:28:00.765Z,2.77
2019-01-31T16:30:29.413Z,2.68
2019-01-31T16:32:57.904Z,2.70
2019-01-31T16:35:26.631Z,2.56
2019-01-31T16:37:55.445Z,2.44
2019-01-31T16:40:24.566Z,2.42
2019-01-31T16:42:53.092Z,2.31
2019-01-31T16:45:21.627Z,2.34
2019-01-31T16:47:50.118Z,2.47
2019-01-31T16:50:21.166Z,2.29
2019-01-31T16:52:49.645Z,2.25
2019-01-31T16:55:23.982Z,2.33
2019-01-31T16:57:52.729Z,2.31
2019-01-31T17:00:32.987Z,2.22
2019-01-31T17:03:01.529Z,2.16
2019-01-31T17:05:32.141Z,2.25
2019-01-31T17:08:00.948Z,2.16
2019-01-31T17:10:29.593Z,2.08
2019-01-31T17:12:58.071Z,2.10
2019-01-31T17:15:27.098Z,1.99
2019-01-31T17:17:55.671Z,1.96
2019-01-31T17:20:36.475Z,1.84
2019-01-31T17:23:05.993Z,1.81
2019-01-31T17:25:34.615Z,1.77
2019-01-31T17:28:03.118Z,1.76
2019-01-31T17:30:31.637Z,1.76
2019-01-31T17:33:00.538Z,1.75
2019-01-31T17:35:29.138Z,1.58
2019-01-31T17:37:57.589Z,1.35
2019-01-31T17:40:29.179Z,1.60
2019-01-31T17:42:57.632Z,1.38
2019-01-31T17:45:30.618Z,1.31
2019-01-31T17:47:56.915Z,1.28
2019-01-31T17:50:25.379Z,1.12
2019-01-31T17:52:53.857Z,1.23
2019-01-31T17:55:41.598Z,1.21
2019-01-31T17:58:09.782Z,1.16
2019-01-31T18:00:44.656Z,0.91
2019-01-31T18:03:13.124Z,0.90
2019-01-31T18:05:41.653Z,1.01
2019-01-31T18:08:10.190Z,0.93
2019-01-31T18:10:41.605Z,0.96
2019-01-31T18:13:10.056Z,0.98
2019-01-31T18:15:42.356Z,0.88
2019-01-31T18:18:08.981Z,0.72
2019-01-31T18:20:37.470Z,0.83
2019-01-31T18:23:05.933Z,0.73
2019-01-31T18:25:34.504Z,0.72
2019-01-31T18:28:02.951Z,0.79
2019-01-31T18:30:34.189Z,0.86
2019-01-31T18:33:04.193Z,0.77
2019-01-31T18:35:32.924Z,0.84
2019-01-31T18:38:01.385Z,0.62
2019-01-31T18:40:34.585Z,0.70
2019-01-31T18:43:03.143Z,0.60
2019-01-31T18:45:34.047Z,0.50
2019-01-31T18:48:02.999Z,0.64
2019-01-31T18:50:36.833Z,0.73
2019-01-31T18:53:05.634Z,0.70
2019-01-31T18:55:34.191Z,0.66
2019-01-31T18:58:02.789Z,0.52
2019-01-31T19:00:37.034Z,0.53
2019-01-31T19:03:05.985Z,0.48
2019-01-31T19:05:36.244Z,0.46
2019-01-31T19:08:08.603Z,0.47
2019-01-31T19:10:42.885Z,0.42
2019-01-31T19:13:06.011Z,0.41
2019-01-31T19:15:34.497Z,0.47
2019-01-31T19:18:05.929Z,0.52
2019-01-31T19:20:33.397Z,0.52
2019-01-31T19:23:04.010Z,0.56
2019-01-31T19:25:32.626Z,0.44
2019-01-31T19:28:01.136Z,0.30
2019-01-31T19:30:31.630Z,0.38
2019-01-31T19:33:00.197Z,0.34
2019-01-31T19:35:28.717Z,0.37
2019-01-31T19:38:01.937Z,0.35
2019-01-31T19:40:30.072Z,0.39
2019-01-31T19:42:58.660Z,0.37
2019-01-31T19:45:30.141Z,0.38
2019-01-31T19:47:58.689Z,0.41
2019-01-31T19:50:28.675Z,0.46
2019-01-31T19:52:57.308Z,0.50
2019-01-31T19:55:27.141Z,0.47
2019-01-31T19:57:55.704Z,0.41
2019-01-31T20:00:25.929Z,0.38
2019-01-31T20:02:54.853Z,0.49
2019-01-31T20:05:23.504Z,0.48
2019-01-31T20:07:52.129Z,0.48
2019-01-31T20:10:26.307Z,0.52
2019-01-31T20:12:55.252Z,0.46
2019-01-31T20:15:24.074Z,0.41
2019-01-31T20:17:52.691Z,0.36
2019-01-31T20:20:26.321Z,0.19
2019-01-31T20:22:55.683Z,0.12
2019-01-31T20:25:24.611Z,0.13
2019-01-31T20:27:53.148Z,0.18
2019-01-31T20:30:26.977Z,0.15
2019-01-31T20:32:57.361Z,0.33
2019-01-31T20:35:26.090Z,0.14
2019-01-31T20:37:54.649Z,0.23
2019-01-31T20:40:34.633Z,0.20
2019-01-31T20:43:04.606Z,0.08
2019-01-31T20:45:33.248Z,0.08
2019-01-31T20:48:01.749Z,0.03
2019-01-31T20:50:35.426Z,-0.02
2019-01-31T20:53:04.573Z,0.01
2019-01-31T20:55:33.121Z,-0.16
2019-01-31T20:58:03.245Z,-0.16
2019-01-31T21:00:35.020Z,-0.04
2019-01-31T21:03:05.101Z,0.03
2019-01-31T21:05:33.929Z,-0.09
2019-01-31T21:08:02.460Z,-0.08
2019-01-31T21:10:31.006Z,-0.11
2019-01-31T21:13:00.828Z,-0.02
2019-01-31T21:15:29.468Z,-0.07
2019-01-31T21:17:59.462Z,-0.12
2019-01-31T21:20:28.101Z,-0.25
2019-01-31T21:22:57.796Z,-0.32
2019-01-31T21:25:26.436Z,-0.22
2019-01-31T21:27:55.088Z,-0.14
2019-01-31T21:30:29.267Z,-0.20
2019-01-31T21:32:57.819Z,-0.28
2019-01-31T21:35:27.734Z,-0.33
2019-01-31T21:37:56.292Z,-0.37
2019-01-31T21:40:26.914Z,-0.33
2019-01-31T21:42:55.451Z,-0.29
2019-01-31T21:45:25.095Z,-0.28
2019-01-31T21:47:54.660Z,-0.38
2019-01-31T21:50:28.868Z,-0.37
2019-01-31T21:52:57.572Z,-0.25
2019-01-31T21:55:26.153Z,-0.41
2019-01-31T21:57:54.609Z,-0.30
2019-01-31T22:00:28.939Z,-0.43
2019-01-31T22:02:57.402Z,-0.52
2019-01-31T22:05:27.411Z,-0.41
2019-01-31T22:07:56.023Z,-0.49
2019-01-31T22:10:24.748Z,-0.49
2019-01-31T22:12:53.273Z,-0.54
2019-01-31T22:15:24.114Z,-0.51
2019-01-31T22:17:52.595Z,-0.52
2019-01-31T22:20:21.033Z,-0.45
2019-01-31T22:22:49.563Z,-0.39
2019-01-31T22:25:20.197Z,-0.51
2019-01-31T22:27:48.737Z,-0.35
2019-01-31T22:30:28.719Z,-0.40
2019-01-31T22:32:57.168Z,-0.61
2019-01-31T22:35:26.344Z,-0.62
2019-01-31T22:37:54.819Z,-0.62
2019-01-31T22:40:23.259Z,-0.65
2019-01-31T22:42:51.738Z,-0.66
2019-01-31T22:45:24.667Z,-0.63
2019-01-31T22:47:53.554Z,-0.71
2019-01-31T22:50:25.482Z,-0.64
2019-01-31T22:52:54.098Z,-0.73
2019-01-31T22:55:26.929Z,-0.78
2019-01-31T22:57:55.453Z,-0.81
2019-01-31T23:01:02.471Z,-0.87
2019-01-31T23:03:30.937Z,-0.79
2019-01-31T23:05:59.389Z,-0.99
2019-01-31T23:08:27.858Z,-0.92
2019-01-31T23:10:56.468Z,-0.94
2019-01-31T23:13:24.919Z,-0.88
2019-01-31T23:15:53.465Z,-0.87
2019-01-31T23:18:21.943Z,-0.88
2019-01-31T23:20:50.413Z,-0.75
2019-01-31T23:23:18.869Z,-0.75
2019-01-31T23:25:47.324Z,-0.83
2019-01-31T23:28:15.782Z,-0.84
2019-01-31T23:30:44.240Z,-0.84
2019-01-31T23:33:13.450Z,-0.87
2019-01-31T23:35:41.934Z,-0.92
2019-01-31T23:38:10.391Z,-0.86
2019-01-31T23:40:38.854Z,-0.99
2019-01-31T23:43:07.498Z,-1.03
2019-01-31T23:45:35.950Z,-1.01
2019-01-31T23:48:04.712Z,-0.90
2019-01-31T23:50:33.297Z,-0.87
2019-01-31T23:53:01.740Z,-0.90
2019-01-31T23:55:30.181Z,-0.84
2019-01-31T23:57:58.666Z,-0.94
